sensor_id;sensor_type;location;lat;lon;timestamp;pressure;altitude;pressure_sealevel;temperature;humidity
37860;BME280;23698;52.014;5.190;2024-02-04T00:02:16;102294.81;;;20.57;100.00
37860;BME280;23698;52.014;5.190;2024-02-04T00:05:07;102296.06;;;19.26;100.00
37860;BME280;23698;52.014;5.190;2024-02-04T00:07:54;102297.53;;;20.32;100.00
37860;BME280;23698;52.014;5.190;2024-02-04T00:10:40;102300.09;;;19.88;100.00
37860;BME280;23698;52.014;5.190;2024-02-04T00:13:26;102306.47;;;20.27;100.00
37860;BME280;23698;52.014;5.190;2024-02-04T00:16:13;102301.53;;;18.39;100.00
37860;BME280;23698;52.014;5.190;2024-02-04T00:18:59;102289.09;;;20.59;100.00
37860;BME280;23698;52.014;5.190;2024-02-04T00:21:47;102290.59;;;20.23;100.00
37860;BME280;23698;52.014;5.190;2024-02-04T00:24:34;102299.78;;;21.42;100.00
37860;BME280;23698;52.014;5.190;2024-02-04T00:27:21;102298.38;;;21.33;100.00
37860;BME280;23698;52.014;5.190;2024-02-04T00:30:09;102303.06;;;20.64;100.00
37860;BME280;23698;52.014;5.190;2024-02-04T00:32:55;102301.38;;;22.17;100.00
37860;BME280;23698;52.014;5.190;2024-02-04T00:35:48;102310.41;;;21.39;100.00
37860;BME280;23698;52.014;5.190;2024-02-04T00:38:36;102296.22;;;21.35;100.00
37860;BME280;23698;52.014;5.190;2024-02-04T00:41:23;102304.34;;;21.11;100.00
37860;BME280;23698;52.014;5.190;2024-02-04T00:44:10;102302.13;;;22.43;100.00
37860;BME280;23698;52.014;5.190;2024-02-04T00:46:56;102300.50;;;21.75;100.00
37860;BME280;23698;52.014;5.190;2024-02-04T00:49:43;102299.00;;;21.91;100.00
37860;BME280;23698;52.014;5.190;2024-02-04T00:52:30;102293.75;;;22.61;100.00
37860;BME280;23698;52.014;5.190;2024-02-04T00:55:18;102290.03;;;21.40;100.00
37860;BME280;23698;52.014;5.190;2024-02-04T00:58:05;102288.34;;;21.39;100.00
37860;BME280;23698;52.014;5.190;2024-02-04T01:00:51;102274.66;;;21.50;100.00
37860;BME280;23698;52.014;5.190;2024-02-04T01:03:38;102273.84;;;21.68;100.00
37860;BME280;23698;52.014;5.190;2024-02-04T01:06:25;102279.69;;;23.98;100.00
37860;BME280;23698;52.014;5.190;2024-02-04T01:09:16;102272.88;;;23.13;100.00
37860;BME280;23698;52.014;5.190;2024-02-04T01:12:05;102273.31;;;21.60;100.00
37860;BME280;23698;52.014;5.190;2024-02-04T01:14:52;102273.69;;;21.63;100.00
37860;BME280;23698;52.014;5.190;2024-02-04T01:17:38;102267.94;;;21.03;100.00
37860;BME280;23698;52.014;5.190;2024-02-04T01:20:25;102266.53;;;21.74;100.00
37860;BME280;23698;52.014;5.190;2024-02-04T01:23:12;102263.84;;;21.30;100.00
37860;BME280;23698;52.014;5.190;2024-02-04T01:25:59;102267.03;;;22.32;100.00
37860;BME280;23698;52.014;5.190;2024-02-04T01:28:47;102266.44;;;21.25;100.00
37860;BME280;23698;52.014;5.190;2024-02-04T01:31:33;102266.44;;;21.44;100.00
37860;BME280;23698;52.014;5.190;2024-02-04T01:34:20;102278.16;;;23.38;100.00
37860;BME280;23698;52.014;5.190;2024-02-04T01:37:07;102273.72;;;23.02;100.00
37860;BME280;23698;52.014;5.190;2024-02-04T01:39:53;102273.41;;;21.28;100.00
37860;BME280;23698;52.014;5.190;2024-02-04T01:42:40;102275.00;;;22.21;100.00
37860;BME280;23698;52.014;5.190;2024-02-04T01:45:28;102275.00;;;21.91;100.00
37860;BME280;23698;52.014;5.190;2024-02-04T01:48:14;102278.25;;;22.72;100.00
37860;BME280;23698;52.014;5.190;2024-02-04T01:51:01;102290.25;;;22.66;100.00
37860;BME280;23698;52.014;5.190;2024-02-04T01:53:49;102286.47;;;23.14;100.00
37860;BME280;23698;52.014;5.190;2024-02-04T01:56:36;102275.72;;;21.68;100.00
37860;BME280;23698;52.014;5.190;2024-02-04T01:59:23;102279.63;;;24.90;100.00
37860;BME280;23698;52.014;5.190;2024-02-04T02:02:14;102291.84;;;23.45;100.00
37860;BME280;23698;52.014;5.190;2024-02-04T02:05:01;102297.53;;;23.38;100.00
37860;BME280;23698;52.014;5.190;2024-02-04T02:07:47;102294.09;;;22.53;100.00
37860;BME280;23698;52.014;5.190;2024-02-04T02:10:37;102306.44;;;23.40;100.00
37860;BME280;23698;52.014;5.190;2024-02-04T02:13:28;102290.47;;;22.22;100.00
37860;BME280;23698;52.014;5.190;2024-02-04T02:16:17;102297.22;;;21.96;100.00
37860;BME280;23698;52.014;5.190;2024-02-04T02:19:15;102285.00;;;23.00;100.00
37860;BME280;23698;52.014;5.190;2024-02-04T02:22:08;102284.41;;;22.74;100.00
37860;BME280;23698;52.014;5.190;2024-02-04T02:25:03;102283.06;;;22.65;100.00
37860;BME280;23698;52.014;5.190;2024-02-04T02:27:51;102274.22;;;21.54;100.00
37860;BME280;23698;52.014;5.190;2024-02-04T02:30:37;102278.47;;;21.86;100.00
37860;BME280;23698;52.014;5.190;2024-02-04T02:33:24;102272.34;;;21.66;100.00
37860;BME280;23698;52.014;5.190;2024-02-04T02:36:13;102278.47;;;19.92;100.00
37860;BME280;23698;52.014;5.190;2024-02-04T02:39:08;102281.78;;;23.03;100.00
37860;BME280;23698;52.014;5.190;2024-02-04T02:41:59;102275.50;;;22.00;100.00
37860;BME280;23698;52.014;5.190;2024-02-04T02:44:47;102276.19;;;20.27;100.00
37860;BME280;23698;52.014;5.190;2024-02-04T02:47:35;102273.31;;;22.51;100.00
37860;BME280;23698;52.014;5.190;2024-02-04T02:50:22;102266.00;;;22.92;100.00
37860;BME280;23698;52.014;5.190;2024-02-04T02:53:08;102270.16;;;20.94;100.00
37860;BME280;23698;52.014;5.190;2024-02-04T02:55:55;102268.72;;;21.10;100.00
37860;BME280;23698;52.014;5.190;2024-02-04T02:58:43;102273.19;;;23.52;100.00
37860;BME280;23698;52.014;5.190;2024-02-04T03:01:30;102278.84;;;22.62;100.00
37860;BME280;23698;52.014;5.190;2024-02-04T03:04:17;102280.00;;;22.43;100.00
37860;BME280;23698;52.014;5.190;2024-02-04T03:07:04;102289.13;;;22.43;100.00
37860;BME280;23698;52.014;5.190;2024-02-04T03:09:52;102292.28;;;22.59;100.00
37860;BME280;23698;52.014;5.190;2024-02-04T03:12:39;102275.09;;;21.29;100.00
37860;BME280;23698;52.014;5.190;2024-02-04T03:15:27;102267.94;;;22.91;100.00
37860;BME280;23698;52.014;5.190;2024-02-04T03:18:14;102273.69;;;21.01;100.00
37860;BME280;23698;52.014;5.190;2024-02-04T03:21:01;102272.78;;;21.51;100.00
37860;BME280;23698;52.014;5.190;2024-02-04T03:23:47;102270.91;;;22.24;100.00
37860;BME280;23698;52.014;5.190;2024-02-04T03:26:34;102271.97;;;20.82;100.00
37860;BME280;23698;52.014;5.190;2024-02-04T03:29:20;102254.41;;;21.75;100.00
37860;BME280;23698;52.014;5.190;2024-02-04T03:32:10;102261.97;;;24.28;100.00
37860;BME280;23698;52.014;5.190;2024-02-04T03:34:56;102268.22;;;24.23;100.00
37860;BME280;23698;52.014;5.190;2024-02-04T03:37:43;102251.41;;;21.21;100.00
37860;BME280;23698;52.014;5.190;2024-02-04T03:40:30;102249.28;;;22.51;100.00
37860;BME280;23698;52.014;5.190;2024-02-04T03:43:16;102251.88;;;21.74;100.00
37860;BME280;23698;52.014;5.190;2024-02-04T03:46:04;102253.31;;;21.95;100.00
37860;BME280;23698;52.014;5.190;2024-02-04T03:48:52;102259.22;;;21.24;100.00
37860;BME280;23698;52.014;5.190;2024-02-04T03:51:39;102266.63;;;20.87;100.00
37860;BME280;23698;52.014;5.190;2024-02-04T03:54:25;102268.81;;;21.22;100.00
37860;BME280;23698;52.014;5.190;2024-02-04T03:57:12;102276.06;;;20.41;100.00
37860;BME280;23698;52.014;5.190;2024-02-04T03:59:58;102281.91;;;23.20;100.00
37860;BME280;23698;52.014;5.190;2024-02-04T04:02:45;102275.47;;;21.33;100.00
37860;BME280;23698;52.014;5.190;2024-02-04T04:05:33;102274.94;;;23.06;100.00
37860;BME280;23698;52.014;5.190;2024-02-04T04:08:20;102270.75;;;22.37;100.00
37860;BME280;23698;52.014;5.190;2024-02-04T04:11:08;102268.72;;;24.03;100.00
37860;BME280;23698;52.014;5.190;2024-02-04T04:13:54;102261.72;;;24.01;100.00
37860;BME280;23698;52.014;5.190;2024-02-04T04:16:41;102246.13;;;23.94;100.00
37860;BME280;23698;52.014;5.190;2024-02-04T04:19:27;102238.63;;;23.95;100.00
37860;BME280;23698;52.014;5.190;2024-02-04T04:22:15;102251.78;;;24.34;99.64
37860;BME280;23698;52.014;5.190;2024-02-04T04:25:02;102246.84;;;25.42;93.72
37860;BME280;23698;52.014;5.190;2024-02-04T04:27:49;102241.31;;;25.42;92.24
37860;BME280;23698;52.014;5.190;2024-02-04T04:30:35;102252.81;;;24.44;96.22
37860;BME280;23698;52.014;5.190;2024-02-04T04:33:22;102238.91;;;23.41;100.00
37860;BME280;23698;52.014;5.190;2024-02-04T04:36:08;102234.41;;;23.64;100.00
37860;BME280;23698;52.014;5.190;2024-02-04T04:38:56;102230.38;;;22.36;100.00
37860;BME280;23698;52.014;5.190;2024-02-04T04:41:44;102222.34;;;23.70;100.00
37860;BME280;23698;52.014;5.190;2024-02-04T04:44:30;102216.84;;;22.94;100.00
37860;BME280;23698;52.014;5.190;2024-02-04T04:47:16;102231.25;;;23.84;100.00
37860;BME280;23698;52.014;5.190;2024-02-04T04:50:05;102233.59;;;23.92;100.00
37860;BME280;23698;52.014;5.190;2024-02-04T04:52:51;102210.88;;;23.78;100.00
37860;BME280;23698;52.014;5.190;2024-02-04T04:55:39;102213.69;;;22.31;100.00
37860;BME280;23698;52.014;5.190;2024-02-04T04:58:25;102220.25;;;23.89;100.00
37860;BME280;23698;52.014;5.190;2024-02-04T05:01:12;102217.75;;;21.86;100.00
37860;BME280;23698;52.014;5.190;2024-02-04T05:03:59;102214.56;;;21.53;100.00
37860;BME280;23698;52.014;5.190;2024-02-04T05:06:46;102213.56;;;23.32;100.00
37860;BME280;23698;52.014;5.190;2024-02-04T05:09:33;102215.88;;;22.41;100.00
37860;BME280;23698;52.014;5.190;2024-02-04T05:12:21;102218.44;;;21.82;100.00
37860;BME280;23698;52.014;5.190;2024-02-04T05:15:08;102207.28;;;20.34;100.00
37860;BME280;23698;52.014;5.190;2024-02-04T05:17:55;102207.91;;;20.36;100.00
37860;BME280;23698;52.014;5.190;2024-02-04T05:20:42;102216.78;;;20.88;100.00
37860;BME280;23698;52.014;5.190;2024-02-04T05:23:29;102217.47;;;19.56;100.00
37860;BME280;23698;52.014;5.190;2024-02-04T05:26:17;102221.09;;;19.50;100.00
37860;BME280;23698;52.014;5.190;2024-02-04T05:29:05;102214.47;;;19.06;100.00
37860;BME280;23698;52.014;5.190;2024-02-04T05:31:52;102194.91;;;19.41;100.00
37860;BME280;23698;52.014;5.190;2024-02-04T05:34:38;102205.66;;;19.94;100.00
37860;BME280;23698;52.014;5.190;2024-02-04T05:37:25;102206.09;;;19.46;100.00
37860;BME280;23698;52.014;5.190;2024-02-04T05:40:12;102136.38;;;10.58;100.00
37860;BME280;23698;52.014;5.190;2024-02-04T05:43:01;102100.66;;;10.18;100.00
37860;BME280;23698;52.014;5.190;2024-02-04T05:45:57;102105.44;;;10.43;100.00
37860;BME280;23698;52.014;5.190;2024-02-04T05:48:43;102128.91;;;10.52;100.00
37860;BME280;23698;52.014;5.190;2024-02-04T05:51:31;102152.25;;;10.79;100.00
37860;BME280;23698;52.014;5.190;2024-02-04T05:54:18;102157.91;;;10.60;100.00
37860;BME280;23698;52.014;5.190;2024-02-04T05:57:04;102163.13;;;10.79;100.00
37860;BME280;23698;52.014;5.190;2024-02-04T05:59:51;102162.53;;;10.67;100.00
37860;BME280;23698;52.014;5.190;2024-02-04T06:02:41;102168.47;;;10.71;100.00
37860;BME280;23698;52.014;5.190;2024-02-04T06:05:28;102163.97;;;10.80;100.00
37860;BME280;23698;52.014;5.190;2024-02-04T06:08:15;102165.66;;;10.81;100.00
37860;BME280;23698;52.014;5.190;2024-02-04T06:11:01;102153.31;;;10.86;100.00
37860;BME280;23698;52.014;5.190;2024-02-04T06:13:49;102150.13;;;10.91;100.00
37860;BME280;23698;52.014;5.190;2024-02-04T06:16:35;102156.19;;;10.85;100.00
37860;BME280;23698;52.014;5.190;2024-02-04T06:19:23;102160.69;;;11.02;100.00
37860;BME280;23698;52.014;5.190;2024-02-04T06:22:10;102142.59;;;11.78;100.00
37860;BME280;23698;52.014;5.190;2024-02-04T06:24:56;102145.84;;;10.80;100.00
37860;BME280;23698;52.014;5.190;2024-02-04T06:27:43;102161.88;;;11.00;100.00
37860;BME280;23698;52.014;5.190;2024-02-04T06:30:29;102152.06;;;11.07;100.00
37860;BME280;23698;52.014;5.190;2024-02-04T06:33:16;102162.06;;;11.06;100.00
37860;BME280;23698;52.014;5.190;2024-02-04T06:36:08;102161.97;;;10.82;100.00
37860;BME280;23698;52.014;5.190;2024-02-04T06:38:55;102155.91;;;10.96;100.00
37860;BME280;23698;52.014;5.190;2024-02-04T06:41:42;102143.38;;;11.54;100.00
37860;BME280;23698;52.014;5.190;2024-02-04T06:44:28;102150.84;;;10.67;100.00
37860;BME280;23698;52.014;5.190;2024-02-04T06:47:15;102160.59;;;11.20;100.00
37860;BME280;23698;52.014;5.190;2024-02-04T06:50:02;102167.75;;;11.29;100.00
37860;BME280;23698;52.014;5.190;2024-02-04T06:52:51;102162.22;;;11.47;100.00
37860;BME280;23698;52.014;5.190;2024-02-04T06:55:38;102159.38;;;11.06;100.00
37860;BME280;23698;52.014;5.190;2024-02-04T06:58:24;102157.66;;;11.56;100.00
37860;BME280;23698;52.014;5.190;2024-02-04T07:01:11;102144.88;;;11.40;100.00
37860;BME280;23698;52.014;5.190;2024-02-04T07:03:59;102146.94;;;11.55;100.00
37860;BME280;23698;52.014;5.190;2024-02-04T07:06:46;102149.59;;;12.14;100.00
37860;BME280;23698;52.014;5.190;2024-02-04T07:09:34;102134.03;;;11.48;100.00
37860;BME280;23698;52.014;5.190;2024-02-04T07:12:20;102143.88;;;10.99;100.00
37860;BME280;23698;52.014;5.190;2024-02-04T07:15:07;102145.94;;;11.56;100.00
37860;BME280;23698;52.014;5.190;2024-02-04T07:17:54;102143.34;;;11.46;100.00
37860;BME280;23698;52.014;5.190;2024-02-04T07:20:41;102152.50;;;11.37;100.00
37860;BME280;23698;52.014;5.190;2024-02-04T07:23:27;102143.91;;;10.72;100.00
37860;BME280;23698;52.014;5.190;2024-02-04T07:26:16;102154.81;;;10.81;100.00
37860;BME280;23698;52.014;5.190;2024-02-04T07:29:02;102161.06;;;11.66;100.00
37860;BME280;23698;52.014;5.190;2024-02-04T07:31:49;102155.09;;;11.46;100.00
37860;BME280;23698;52.014;5.190;2024-02-04T07:34:36;102138.84;;;11.79;100.00
37860;BME280;23698;52.014;5.190;2024-02-04T07:37:23;102140.53;;;11.64;100.00
37860;BME280;23698;52.014;5.190;2024-02-04T07:40:10;102141.31;;;11.48;100.00
37860;BME280;23698;52.014;5.190;2024-02-04T07:42:59;102137.66;;;11.82;100.00
37860;BME280;23698;52.014;5.190;2024-02-04T07:45:45;102137.34;;;11.93;100.00
37860;BME280;23698;52.014;5.190;2024-02-04T07:48:32;102135.66;;;11.92;100.00
37860;BME280;23698;52.014;5.190;2024-02-04T07:51:18;102136.97;;;12.54;100.00
37860;BME280;23698;52.014;5.190;2024-02-04T07:54:05;102139.44;;;12.88;100.00
37860;BME280;23698;52.014;5.190;2024-02-04T07:56:52;102134.47;;;12.19;100.00
37860;BME280;23698;52.014;5.190;2024-02-04T07:59:40;102127.31;;;12.26;100.00
37860;BME280;23698;52.014;5.190;2024-02-04T08:02:26;102130.53;;;12.30;100.00
37860;BME280;23698;52.014;5.190;2024-02-04T08:05:13;102132.25;;;12.06;100.00
37860;BME280;23698;52.014;5.190;2024-02-04T08:07:59;102126.66;;;11.92;100.00
37860;BME280;23698;52.014;5.190;2024-02-04T08:10:46;102123.38;;;11.88;100.00
37860;BME280;23698;52.014;5.190;2024-02-04T08:13:33;102120.38;;;11.99;100.00
37860;BME280;23698;52.014;5.190;2024-02-04T08:16:21;102117.97;;;12.29;100.00
37860;BME280;23698;52.014;5.190;2024-02-04T08:19:08;102132.09;;;11.92;100.00
37860;BME280;23698;52.014;5.190;2024-02-04T08:21:54;102122.16;;;12.56;100.00
37860;BME280;23698;52.014;5.190;2024-02-04T08:24:41;102122.88;;;11.68;100.00
37860;BME280;23698;52.014;5.190;2024-02-04T08:27:28;102122.69;;;11.02;100.00
37860;BME280;23698;52.014;5.190;2024-02-04T08:30:15;102131.00;;;11.60;100.00
37860;BME280;23698;52.014;5.190;2024-02-04T08:33:04;102136.88;;;11.22;100.00
37860;BME280;23698;52.014;5.190;2024-02-04T08:35:50;102126.00;;;11.30;100.00
37860;BME280;23698;52.014;5.190;2024-02-04T08:38:37;102121.28;;;11.41;100.00
37860;BME280;23698;52.014;5.190;2024-02-04T08:41:24;102115.44;;;11.95;100.00
37860;BME280;23698;52.014;5.190;2024-02-04T08:44:11;102123.19;;;12.63;100.00
37860;BME280;23698;52.014;5.190;2024-02-04T08:47:11;102102.94;;;12.66;100.00
37860;BME280;23698;52.014;5.190;2024-02-04T08:50:01;102111.44;;;12.63;100.00
37860;BME280;23698;52.014;5.190;2024-02-04T08:52:47;102111.66;;;12.93;100.00
37860;BME280;23698;52.014;5.190;2024-02-04T08:55:34;102100.13;;;11.77;100.00
37860;BME280;23698;52.014;5.190;2024-02-04T08:58:20;102107.28;;;12.27;100.00
37860;BME280;23698;52.014;5.190;2024-02-04T09:01:07;102103.22;;;12.23;100.00
37860;BME280;23698;52.014;5.190;2024-02-04T09:03:53;102094.03;;;12.00;100.00
37860;BME280;23698;52.014;5.190;2024-02-04T09:06:41;102100.63;;;12.30;100.00
37860;BME280;23698;52.014;5.190;2024-02-04T09:09:28;102087.41;;;12.11;100.00
37860;BME280;23698;52.014;5.190;2024-02-04T09:12:14;102091.41;;;12.56;100.00
37860;BME280;23698;52.014;5.190;2024-02-04T09:15:01;102085.00;;;12.24;100.00
37860;BME280;23698;52.014;5.190;2024-02-04T09:17:50;102085.56;;;12.03;100.00
37860;BME280;23698;52.014;5.190;2024-02-04T09:20:37;102092.28;;;12.32;100.00
37860;BME280;23698;52.014;5.190;2024-02-04T09:23:25;102090.50;;;12.07;100.00
37860;BME280;23698;52.014;5.190;2024-02-04T09:26:11;102098.44;;;12.17;100.00
37860;BME280;23698;52.014;5.190;2024-02-04T09:29:04;102095.56;;;12.11;100.00
37860;BME280;23698;52.014;5.190;2024-02-04T09:31:51;102110.88;;;12.20;100.00
37860;BME280;23698;52.014;5.190;2024-02-04T09:34:42;102096.09;;;12.78;100.00
37860;BME280;23698;52.014;5.190;2024-02-04T09:37:29;102096.88;;;12.95;100.00
37860;BME280;23698;52.014;5.190;2024-02-04T09:40:17;102102.84;;;12.26;100.00
37860;BME280;23698;52.014;5.190;2024-02-04T09:43:05;102103.88;;;12.17;100.00
37860;BME280;23698;52.014;5.190;2024-02-04T09:45:52;102107.06;;;12.54;100.00
37860;BME280;23698;52.014;5.190;2024-02-04T09:48:40;102103.66;;;12.52;100.00
37860;BME280;23698;52.014;5.190;2024-02-04T09:51:27;102098.69;;;12.63;100.00
37860;BME280;23698;52.014;5.190;2024-02-04T09:54:16;102095.66;;;12.98;100.00
37860;BME280;23698;52.014;5.190;2024-02-04T09:57:06;102092.13;;;13.20;100.00
37860;BME280;23698;52.014;5.190;2024-02-04T09:59:52;102084.56;;;12.68;100.00
37860;BME280;23698;52.014;5.190;2024-02-04T10:02:41;102086.94;;;12.71;100.00
37860;BME280;23698;52.014;5.190;2024-02-04T10:05:28;102089.28;;;12.18;100.00
37860;BME280;23698;52.014;5.190;2024-02-04T10:08:15;102095.41;;;12.76;100.00
37860;BME280;23698;52.014;5.190;2024-02-04T10:11:06;102098.66;;;12.72;100.00
37860;BME280;23698;52.014;5.190;2024-02-04T10:13:54;102104.75;;;11.93;100.00
37860;BME280;23698;52.014;5.190;2024-02-04T10:16:41;102090.91;;;12.44;100.00
37860;BME280;23698;52.014;5.190;2024-02-04T10:19:27;102088.53;;;12.49;100.00
37860;BME280;23698;52.014;5.190;2024-02-04T10:22:14;102075.53;;;12.12;100.00
37860;BME280;23698;52.014;5.190;2024-02-04T10:25:05;102088.41;;;12.18;100.00
37860;BME280;23698;52.014;5.190;2024-02-04T10:27:53;102094.34;;;12.38;100.00
37860;BME280;23698;52.014;5.190;2024-02-04T10:30:41;102078.25;;;12.12;100.00
37860;BME280;23698;52.014;5.190;2024-02-04T10:33:30;102090.16;;;11.94;100.00
37860;BME280;23698;52.014;5.190;2024-02-04T10:36:16;102091.47;;;12.31;100.00
37860;BME280;23698;52.014;5.190;2024-02-04T10:39:03;102095.56;;;12.27;100.00
37860;BME280;23698;52.014;5.190;2024-02-04T10:41:52;102108.47;;;12.08;100.00
37860;BME280;23698;52.014;5.190;2024-02-04T10:44:42;102113.38;;;11.80;100.00
37860;BME280;23698;52.014;5.190;2024-02-04T10:47:32;102111.38;;;11.99;100.00
37860;BME280;23698;52.014;5.190;2024-02-04T10:50:23;102102.38;;;11.98;100.00
37860;BME280;23698;52.014;5.190;2024-02-04T10:53:12;102099.03;;;12.69;100.00
37860;BME280;23698;52.014;5.190;2024-02-04T10:56:02;102101.81;;;11.70;100.00
37860;BME280;23698;52.014;5.190;2024-02-04T10:58:51;102096.94;;;12.15;100.00
37860;BME280;23698;52.014;5.190;2024-02-04T11:01:39;102082.97;;;12.26;100.00
37860;BME280;23698;52.014;5.190;2024-02-04T11:04:28;102088.94;;;12.05;100.00
37860;BME280;23698;52.014;5.190;2024-02-04T11:07:15;102087.22;;;11.71;100.00
37860;BME280;23698;52.014;5.190;2024-02-04T11:10:04;102091.28;;;11.67;100.00
37860;BME280;23698;52.014;5.190;2024-02-04T11:12:51;102085.00;;;11.66;100.00
37860;BME280;23698;52.014;5.190;2024-02-04T11:15:38;102088.59;;;11.92;100.00
37860;BME280;23698;52.014;5.190;2024-02-04T11:18:46;102083.34;;;12.06;100.00
37860;BME280;23698;52.014;5.190;2024-02-04T11:21:58;102068.56;;;12.01;100.00
37860;BME280;23698;52.014;5.190;2024-02-04T11:25:03;102071.63;;;12.06;100.00
37860;BME280;23698;52.014;5.190;2024-02-04T11:27:55;102064.75;;;12.43;100.00
37860;BME280;23698;52.014;5.190;2024-02-04T11:30:43;102075.63;;;13.22;100.00
37860;BME280;23698;52.014;5.190;2024-02-04T11:33:30;102067.59;;;12.58;100.00
37860;BME280;23698;52.014;5.190;2024-02-04T11:36:18;102057.31;;;12.20;100.00
37860;BME280;23698;52.014;5.190;2024-02-04T11:39:12;102058.88;;;11.98;100.00
37860;BME280;23698;52.014;5.190;2024-02-04T11:42:01;102034.75;;;12.12;100.00
37860;BME280;23698;52.014;5.190;2024-02-04T11:45:06;102037.00;;;12.56;100.00
37860;BME280;23698;52.014;5.190;2024-02-04T11:48:00;102034.91;;;12.18;100.00
37860;BME280;23698;52.014;5.190;2024-02-04T11:50:52;102035.34;;;12.46;100.00
37860;BME280;23698;52.014;5.190;2024-02-04T11:53:39;102028.78;;;12.72;100.00
37860;BME280;23698;52.014;5.190;2024-02-04T11:56:27;102024.19;;;13.04;100.00
37860;BME280;23698;52.014;5.190;2024-02-04T11:59:14;102026.19;;;12.79;100.00
37860;BME280;23698;52.014;5.190;2024-02-04T12:02:05;102017.50;;;12.83;100.00
37860;BME280;23698;52.014;5.190;2024-02-04T12:04:52;102020.91;;;13.40;100.00
37860;BME280;23698;52.014;5.190;2024-02-04T12:07:40;102014.28;;;13.95;100.00
37860;BME280;23698;52.014;5.190;2024-02-04T12:10:29;102004.28;;;13.73;100.00
37860;BME280;23698;52.014;5.190;2024-02-04T12:13:19;102004.63;;;13.70;100.00
37860;BME280;23698;52.014;5.190;2024-02-04T12:16:06;102001.53;;;13.35;100.00
37860;BME280;23698;52.014;5.190;2024-02-04T12:18:54;102014.25;;;13.43;100.00
37860;BME280;23698;52.014;5.190;2024-02-04T12:21:41;102008.34;;;13.54;100.00
37860;BME280;23698;52.014;5.190;2024-02-04T12:24:29;101994.47;;;13.17;100.00
37860;BME280;23698;52.014;5.190;2024-02-04T12:27:16;101995.34;;;13.64;100.00
37860;BME280;23698;52.014;5.190;2024-02-04T12:30:05;102001.25;;;14.06;100.00
37860;BME280;23698;52.014;5.190;2024-02-04T12:32:56;101996.28;;;13.33;100.00
37860;BME280;23698;52.014;5.190;2024-02-04T12:35:49;101996.63;;;12.76;100.00
37860;BME280;23698;52.014;5.190;2024-02-04T12:38:35;102000.13;;;12.53;100.00
37860;BME280;23698;52.014;5.190;2024-02-04T12:41:23;102001.28;;;12.59;100.00
37860;BME280;23698;52.014;5.190;2024-02-04T12:44:10;102008.69;;;13.04;100.00
37860;BME280;23698;52.014;5.190;2024-02-04T12:46:58;101996.06;;;12.80;100.00
37860;BME280;23698;52.014;5.190;2024-02-04T12:49:45;102019.75;;;12.72;100.00
37860;BME280;23698;52.014;5.190;2024-02-04T12:52:32;102001.94;;;12.61;100.00
37860;BME280;23698;52.014;5.190;2024-02-04T12:55:25;102000.13;;;13.16;100.00
37860;BME280;23698;52.014;5.190;2024-02-04T12:58:14;102009.09;;;13.48;100.00
37860;BME280;23698;52.014;5.190;2024-02-04T13:01:02;101992.50;;;13.57;100.00
37860;BME280;23698;52.014;5.190;2024-02-04T13:03:55;101990.75;;;13.18;100.00
37860;BME280;23698;52.014;5.190;2024-02-04T13:06:42;101986.69;;;13.14;100.00
37860;BME280;23698;52.014;5.190;2024-02-04T13:09:28;101981.03;;;14.00;100.00
37860;BME280;23698;52.014;5.190;2024-02-04T13:12:16;101979.53;;;13.13;100.00
37860;BME280;23698;52.014;5.190;2024-02-04T13:15:03;101981.84;;;13.25;100.00
37860;BME280;23698;52.014;5.190;2024-02-04T13:17:49;101978.94;;;12.72;100.00
37860;BME280;23698;52.014;5.190;2024-02-04T13:20:37;101969.44;;;12.68;100.00
37860;BME280;23698;52.014;5.190;2024-02-04T13:23:26;101975.66;;;13.08;100.00
37860;BME280;23698;52.014;5.190;2024-02-04T13:26:12;101976.88;;;13.05;100.00
37860;BME280;23698;52.014;5.190;2024-02-04T13:28:59;101977.31;;;13.40;100.00
37860;BME280;23698;52.014;5.190;2024-02-04T13:31:45;101967.50;;;13.31;100.00
37860;BME280;23698;52.014;5.190;2024-02-04T13:34:32;101964.78;;;13.54;100.00
37860;BME280;23698;52.014;5.190;2024-02-04T13:37:21;101969.66;;;12.58;100.00
37860;BME280;23698;52.014;5.190;2024-02-04T13:40:08;101970.59;;;12.73;100.00
37860;BME280;23698;52.014;5.190;2024-02-04T13:42:56;101969.41;;;12.44;100.00
37860;BME280;23698;52.014;5.190;2024-02-04T13:45:43;101963.09;;;12.44;100.00
37860;BME280;23698;52.014;5.190;2024-02-04T13:48:29;101966.41;;;12.62;100.00
37860;BME280;23698;52.014;5.190;2024-02-04T13:51:16;101952.81;;;13.40;100.00
37860;BME280;23698;52.014;5.190;2024-02-04T13:54:22;101947.06;;;13.73;100.00
37860;BME280;23698;52.014;5.190;2024-02-04T13:57:08;101936.69;;;14.43;100.00
37860;BME280;23698;52.014;5.190;2024-02-04T13:59:56;101930.72;;;13.88;100.00
37860;BME280;23698;52.014;5.190;2024-02-04T14:02:43;101923.63;;;13.26;100.00
37860;BME280;23698;52.014;5.190;2024-02-04T14:05:29;101920.28;;;13.76;100.00
37860;BME280;23698;52.014;5.190;2024-02-04T14:08:16;101933.56;;;12.72;100.00
37860;BME280;23698;52.014;5.190;2024-02-04T14:11:04;101932.56;;;12.65;100.00
37860;BME280;23698;52.014;5.190;2024-02-04T14:13:50;101929.31;;;12.70;100.00
37860;BME280;23698;52.014;5.190;2024-02-04T14:16:37;101926.38;;;12.79;100.00
37860;BME280;23698;52.014;5.190;2024-02-04T14:19:24;101924.13;;;12.60;100.00
37860;BME280;23698;52.014;5.190;2024-02-04T14:22:10;101923.06;;;12.61;100.00
37860;BME280;23698;52.014;5.190;2024-02-04T14:24:57;101917.63;;;12.61;100.00
37860;BME280;23698;52.014;5.190;2024-02-04T14:27:46;101909.47;;;12.84;100.00